Terminal Aerodrome Forecast
Issued by NWS North Platte, NE

Home | Current Version | Previous Version | Text Only | Print | Product List | Glossary On
Versions: 1 2 3 4 5 6 7 8 9 10 11 12 13 14
156
FTUS43 KLBF 041745 RRA
TAFVTN
TAF
KVTN 041745Z 0418/0518 29006KT P6SM FEW250
     FM050800 24006KT P6SM OVC070
     FM051700 30013KT P6SM BKN035=

USA.gov is the U.S. government's official web portal to all federal, state and local government web resources and services.